Meteo Giornale » Osservazioni meteo Messico » Mexico City-Licenci

ore: 00:45 - Osservazioni Meteo Mexico City-Licenci
Lat. 19° 26' N Lon. 99° 6' W Alt. 2238 metri s.l.m.

poco_nuvoloso America/Mexico_City

17 °C

Poco Nuvoloso

Temp. 24 Ore

11 °C

26 °C

Sud/Sud-Est

9.3 Km/h

Dew point 8 °C

Umidità 55 %

Visibilità  13 Km

Il sole sorge alle ore 07:09

Il sole tramonta alle ore 19:58

Data e Ora Cielo e Fenomeni T °C DP °C Um. % Pres. hPa Vis. km Vento km/h
Oggi h: 00:45 poco_nuvoloso Poco Nuvoloso 17 8 55 1024 13 S/SE 9.3
Ieri h: 23:41 nuvoloso Nuvoloso 18 8 51 1024 13 N 5.5
Ieri h: 22:43 nuvoloso Nuvoloso 18 8 51 1024 13 S/SE 11.1
Ieri h: 21:48 molto_nuvoloso Molto Nuvoloso 18 8 51 1023 13 S/SO 9.3
Ieri h: 20:42 poco_nuvoloso Poco Nuvoloso 19 8 48 1023 13 S 13
Ieri h: 19:49 molto_nuvoloso Molto Nuvoloso 19 8 48 1022 13 SE 20.3
Ieri h: 18:46 molto_nuvoloso Molto Nuvoloso 19 10 55 1022 10 E/NE 25.9
Ieri h: 18:26 coperto Coperto 20 8 45 1022 10 E/NE 18.5
Ieri h: 18:12 coperto_pioggia Pioggia Debole 21 7 40 1022 10 N/NO 27.8
Ieri h: 17:43 coperto Coperto 23 5 31 1021 11 E 13
Ieri h: 16:42 coperto Coperto 23 5 31 1021 11 S 14.8
Ieri h: 16:27 coperto Coperto 24 5 29 1021 11 S 14.8
Ieri h: 15:46 molto_nuvoloso Molto Nuvoloso 26 2 20 1021 10 N/NE 16.7
Ieri h: 14:45 nuvoloso Nuvoloso 26 3 22 1022 10 N 5.5
Ieri h: 13:51 molto_nuvoloso Molto Nuvoloso 25 2 22 1023 10 N 5.5
Ieri h: 13:50 molto_nuvoloso Molto Nuvoloso 25 2 22 1023 10 N 5.5
Ieri h: 12:47 molto_nuvoloso Molto Nuvoloso 23 4 28 1025 13 N 5.5
Ieri h: 11:48 nuvoloso Nuvoloso 22 5 32 1025 13 NE 11.1
Ieri h: 10:48 nuvoloso Nuvoloso 20 6 39 1026 10 E/SE 7.4
Ieri h: 09:47 nuvoloso Nuvoloso 18 7 48 1026 10 N 5.5
Ieri h: 09:44 nuvoloso Nuvoloso 18 7 48 1026 10 N 5.5
Ieri h: 08:42 poco_nuvoloso Poco Nuvoloso 15 7 58 1026 13 E 7.4
Ieri h: 08:39 poco_nuvoloso Poco Nuvoloso 15 7 58 1026 13 E/SE 7.4
Ieri h: 07:42 nuvoloso Nuvoloso 12 7 71 1025 11 E 9.3
Ieri h: 06:48 sereno Sereno 12 7 71 1025 10 E/NE 13
Ieri h: 05:44 sereno Sereno 11 7 76 1024 10 N 3.7
Ieri h: 04:41 sereno Sereno 11 7 76 1025 13 E/NE 11.1
Ieri h: 03:47 sereno Sereno 12 7 71 1025 13 E/NE 9.3
Ieri h: 02:47 sereno Sereno 14 7 62 1025 13 E 11.1
Ieri h: 01:42 poco_nuvoloso Poco Nuvoloso 14 8 67 1025 13 E 13